Time;durP1;ratioP1;P1;durP2;ratioP2;P2;SDS_P1;SDS_P2;PMS_P1;PMS_P2;Temp;Humidity;BMP_temperature;BMP_pressure;BME280_temperature;BME280_humidity;BME280_pressure;Samples;Min_cycle;Max_cycle;Signal;HPM_P1;HPM_P2
2021/03/29 00:00:39;;;;;;;11.18;3.35;;;10.40;71.40;;;;;;5072988;28;20059;-74
2021/03/29 00:03:05;;;;;;;7.75;3.35;;;10.40;71.40;;;;;;5072898;28;20017;-74
2021/03/29 00:05:33;;;;;;;9.43;3.85;;;10.40;71.50;;;;;;5072735;28;20024;-73
2021/03/29 00:08:09;;;;;;;10.98;3.60;;;10.40;71.50;;;;;;5072681;28;20020;-74
2021/03/29 00:10:38;;;;;;;6.35;3.20;;;10.30;71.50;;;;;;5072682;28;20039;-74
2021/03/29 00:13:04;;;;;;;8.85;3.40;;;10.30;71.50;;;;;;5072628;28;20028;-74
2021/03/29 00:15:33;;;;;;;6.20;3.10;;;10.30;71.50;;;;;;5073915;28;20338;-74
2021/03/29 00:17:59;;;;;;;9.25;3.63;;;10.30;71.60;;;;;;5073847;28;20075;-73
2021/03/29 00:20:29;;;;;;;8.15;3.17;;;10.30;71.60;;;;;;5073802;28;20032;-74
2021/03/29 00:22:58;;;;;;;8.93;3.20;;;10.20;71.60;;;;;;5072593;28;20033;-74
2021/03/29 00:25:26;;;;;;;9.55;3.40;;;10.30;71.60;;;;;;5072337;28;20021;-74
2021/03/29 00:27:51;;;;;;;7.03;3.10;;;10.20;71.60;;;;;;5073735;28;20040;-74
2021/03/29 00:30:24;;;;;;;6.78;3.35;;;10.30;71.60;;;;;;5072517;28;20020;-74
2021/03/29 00:32:50;;;;;;;8.05;3.38;;;10.20;71.60;;;;;;5072449;28;20028;-74
2021/03/29 00:35:20;;;;;;;5.70;3.25;;;10.20;71.60;;;;;;5073945;28;20030;-73
2021/03/29 00:37:49;;;;;;;6.55;3.08;;;10.20;71.60;;;;;;5073660;28;20107;-73
2021/03/29 00:40:17;;;;;;;8.07;3.13;;;10.20;71.60;;;;;;5072014;28;20024;-74
2021/03/29 00:42:43;;;;;;;6.20;3.03;;;10.20;71.60;;;;;;5072026;28;20025;-74
2021/03/29 00:45:14;;;;;;;9.45;3.50;;;10.20;71.60;;;;;;5073743;28;20032;-74
2021/03/29 00:47:40;;;;;;;6.40;2.90;;;10.20;71.60;;;;;;5072187;28;20078;-74
2021/03/29 00:50:30;;;;;;;8.25;3.13;;;10.10;71.60;;;;;;5071978;28;20024;-73
2021/03/29 00:52:57;;;;;;;8.55;3.30;;;10.20;71.70;;;;;;5073330;28;20052;-74
2021/03/29 00:55:23;;;;;;;6.88;3.15;;;10.10;71.60;;;;;;5071946;28;20021;-74
2021/03/29 00:57:50;;;;;;;6.22;3.25;;;10.10;71.60;;;;;;5071819;28;20021;-74
2021/03/29 01:00:26;;;;;;;6.43;3.25;;;10.10;71.70;;;;;;5073052;28;20126;-74
2021/03/29 01:02:52;;;;;;;7.45;3.15;;;10.10;71.70;;;;;;5071967;28;20498;-74
2021/03/29 01:05:21;;;;;;;8.20;3.05;;;10.10;71.70;;;;;;5073263;28;20051;-74
2021/03/29 01:07:49;;;;;;;7.40;3.47;;;10.10;71.70;;;;;;5071807;28;20024;-74
2021/03/29 01:10:16;;;;;;;8.02;2.97;;;10.10;71.70;;;;;;5071548;28;20020;-74
2021/03/29 01:12:43;;;;;;;8.25;3.20;;;10.10;71.70;;;;;;5073710;28;20487;-74
2021/03/29 01:15:13;;;;;;;8.55;3.15;;;10.00;71.70;;;;;;5071861;28;20486;-74
2021/03/29 01:17:41;;;;;;;5.78;2.55;;;10.00;71.70;;;;;;5055457;28;20138;-74
2021/03/29 01:20:44;;;;;;;6.05;2.67;;;10.00;71.70;;;;;;5073197;28;20024;-74
2021/03/29 01:23:11;;;;;;;7.97;2.60;;;10.00;71.70;;;;;;5073165;28;20075;-74
2021/03/29 01:25:52;;;;;;;8.48;3.38;;;10.00;71.70;;;;;;5071897;28;20052;-73
2021/03/29 01:28:22;;;;;;;10.52;3.38;;;10.00;71.80;;;;;;5071796;28;20029;-74
2021/03/29 01:30:48;;;;;;;10.50;3.42;;;10.00;72.30;;;;;;5073372;28;20472;-74
2021/03/29 01:33:15;;;;;;;8.23;3.08;;;10.00;71.70;;;;;;5072975;28;20167;-74
2021/03/29 01:35:45;;;;;;;7.97;3.20;;;10.00;71.80;;;;;;5071746;28;20073;-74
2021/03/29 01:38:12;;;;;;;9.40;3.38;;;10.00;71.70;;;;;;5072723;28;20088;-74
2021/03/29 01:40:41;;;;;;;6.35;3.40;;;10.00;71.70;;;;;;5071614;28;20047;-73
2021/03/29 01:43:09;;;;;;;9.15;3.63;;;10.10;71.80;;;;;;5071579;28;20115;-73
2021/03/29 01:45:36;;;;;;;10.00;3.50;;;10.00;71.80;;;;;;5071475;28;20028;-73
2021/03/29 01:48:04;;;;;;;8.60;3.53;;;10.10;71.80;;;;;;5071448;28;20479;-73
2021/03/29 01:50:33;;;;;;;8.93;3.15;;;10.10;71.70;;;;;;5072759;28;20105;-74
2021/03/29 01:53:01;;;;;;;11.27;3.55;;;10.10;71.60;;;;;;5072758;28;20075;-74
2021/03/29 01:55:29;;;;;;;9.45;3.92;;;10.20;71.60;;;;;;5071361;28;20028;-74
2021/03/29 01:57:54;;;;;;;10.07;3.80;;;10.20;71.50;;;;;;5073129;28;20024;-73
2021/03/29 02:00:28;;;;;;;10.10;3.60;;;10.20;71.50;;;;;;5071246;28;20539;-72
2021/03/29 02:02:55;;;;;;;7.82;3.10;;;10.20;71.30;;;;;;5072904;28;20028;-74
2021/03/29 02:05:22;;;;;;;7.05;2.75;;;10.20;71.30;;;;;;5072800;28;20020;-73
2021/03/29 02:07:50;;;;;;;8.82;3.05;;;10.20;71.20;;;;;;5073001;28;20100;-73
2021/03/29 02:10:27;;;;;;;11.43;3.78;;;10.20;71.20;;;;;;5072667;28;20382;-73
2021/03/29 02:12:54;;;;;;;7.93;3.38;;;10.30;71.20;;;;;;5071284;28;20099;-74
2021/03/29 02:15:26;;;;;;;9.73;3.20;;;10.30;71.20;;;;;;5072508;28;20417;-74
2021/03/29 02:17:57;;;;;;;9.82;3.38;;;10.30;71.10;;;;;;5072538;28;20329;-74
2021/03/29 02:20:25;;;;;;;5.20;2.70;;;10.30;71.00;;;;;;5074422;28;20020;-74
2021/03/29 02:22:53;;;;;;;10.10;3.75;;;10.30;71.10;;;;;;5076364;28;20024;-73
2021/03/29 02:25:21;;;;;;;14.07;4.05;;;10.30;71.00;;;;;;5076808;28;20024;-73
2021/03/29 02:27:51;;;;;;;14.48;3.60;;;10.30;71.00;;;;;;5076500;28;20402;-74
2021/03/29 02:30:21;;;;;;;9.75;3.47;;;10.30;71.00;;;;;;5076410;28;20101;-74
2021/03/29 02:32:49;;;;;;;10.80;3.40;;;10.30;70.90;;;;;;5076462;28;20017;-74
2021/03/29 02:35:16;;;;;;;8.13;3.08;;;10.30;71.00;;;;;;5074515;28;20013;-74
2021/03/29 02:37:45;;;;;;;8.15;3.28;;;10.30;70.90;;;;;;5074451;28;20044;-74
2021/03/29 02:40:12;;;;;;;9.75;3.38;;;10.30;70.90;;;;;;5075626;28;20100;-74
2021/03/29 02:42:40;;;;;;;9.80;3.40;;;10.30;71.00;;;;;;5074464;28;20054;-74
2021/03/29 02:45:08;;;;;;;9.70;3.45;;;10.30;71.00;;;;;;5075713;28;20021;-74
2021/03/29 02:47:34;;;;;;;8.52;3.05;;;10.20;70.90;;;;;;5074440;28;20021;-74
2021/03/29 02:50:01;;;;;;;8.15;3.22;;;10.20;71.00;;;;;;5074412;28;20021;-73
2021/03/29 02:52:28;;;;;;;9.27;3.30;;;10.20;71.00;;;;;;5074386;28;20020;-74
2021/03/29 02:54:55;;;;;;;8.68;3.10;;;10.20;71.00;;;;;;5075730;28;20108;-74
2021/03/29 02:57:22;;;;;;;6.38;3.00;;;10.20;71.00;;;;;;5074372;28;20098;-74
2021/03/29 02:59:48;;;;;;;10.07;3.17;;;10.20;71.10;;;;;;5074323;28;20388;-74
2021/03/29 03:02:15;;;;;;;8.27;3.10;;;10.10;71.00;;;;;;5075498;28;20107;-74
2021/03/29 03:04:41;;;;;;;6.18;3.22;;;10.10;71.10;;;;;;5075501;28;20020;-73
2021/03/29 03:07:08;;;;;;;9.63;3.83;;;10.10;71.10;;;;;;5074200;28;20475;-73
2021/03/29 03:09:34;;;;;;;8.68;3.22;;;10.10;71.10;;;;;;5074203;28;20023;-74
2021/03/29 03:12:00;;;;;;;6.80;3.33;;;10.10;71.20;;;;;;5075348;28;20048;-74
2021/03/29 03:14:27;;;;;;;9.38;3.40;;;10.10;71.20;;;;;;5074094;28;20021;-74
2021/03/29 03:16:52;;;;;;;9.32;3.80;;;10.10;71.20;;;;;;5074054;28;20039;-74
2021/03/29 03:19:19;;;;;;;9.65;3.53;;;10.10;71.20;;;;;;5073987;28;20098;-74
2021/03/29 03:21:44;;;;;;;9.00;3.72;;;10.10;71.30;;;;;;5074071;28;20033;-73
2021/03/29 03:24:10;;;;;;;9.65;3.80;;;10.00;71.20;;;;;;5075020;28;20095;-73
2021/03/29 03:26:36;;;;;;;7.75;3.60;;;10.00;71.20;;;;;;5075142;28;20021;-73
2021/03/29 03:29:03;;;;;;;6.63;3.67;;;10.00;71.30;;;;;;5073793;28;20019;-73
2021/03/29 03:31:29;;;;;;;7.90;3.55;;;10.00;72.00;;;;;;5072920;28;20111;-73
2021/03/29 03:33:55;;;;;;;9.32;4.57;;;10.00;71.30;;;;;;5073491;28;20063;-73
2021/03/29 03:36:24;;;;;;;9.65;4.47;;;10.00;71.40;;;;;;5074571;28;20025;-73
2021/03/29 03:38:52;;;;;;;10.68;4.72;;;10.00;71.40;;;;;;5074801;28;20033;-73
2021/03/29 03:41:33;;;;;;;11.65;4.93;;;9.90;71.40;;;;;;5074682;28;20021;-73
2021/03/29 03:44:01;;;;;;;9.15;4.80;;;9.90;71.40;;;;;;5074761;28;20028;-73
2021/03/29 03:46:45;;;;;;;10.30;4.82;;;9.90;71.40;;;;;;5073270;28;20036;-73
2021/03/29 03:49:21;;;;;;;9.93;5.10;;;9.90;71.50;;;;;;5073091;28;20021;-73
2021/03/29 03:51:48;;;;;;;9.30;5.03;;;9.90;71.50;;;;;;5073061;28;20488;-73
2021/03/29 03:54:15;;;;;;;11.13;5.03;;;9.80;71.50;;;;;;5073034;28;20031;-73
2021/03/29 03:56:41;;;;;;;10.35;4.95;;;9.80;71.60;;;;;;5074293;28;20081;-74
2021/03/29 03:59:09;;;;;;;9.90;5.00;;;9.80;72.20;;;;;;5073005;28;20403;-73
2021/03/29 04:01:55;;;;;;;10.55;4.70;;;9.80;71.60;;;;;;5074262;28;20380;-73
2021/03/29 04:04:21;;;;;;;8.98;4.38;;;9.80;71.60;;;;;;5072825;28;20476;-74
2021/03/29 04:06:46;;;;;;;13.10;5.38;;;9.80;71.70;;;;;;5074345;28;20035;-73
2021/03/29 04:09:12;;;;;;;10.15;4.40;;;9.80;71.70;;;;;;5072821;28;20023;-73
2021/03/29 04:11:38;;;;;;;12.88;4.43;;;9.80;71.60;;;;;;5073971;28;20372;-73
2021/03/29 04:14:04;;;;;;;11.02;4.82;;;9.80;71.70;;;;;;5072718;28;20017;-73
2021/03/29 04:16:29;;;;;;;9.35;4.40;;;9.80;71.60;;;;;;5074399;28;20024;-73
2021/03/29 04:18:55;;;;;;;7.70;4.00;;;9.80;71.60;;;;;;5072618;28;20115;-73
2021/03/29 04:21:21;;;;;;;8.60;4.28;;;9.80;71.60;;;;;;5072327;28;20032;-73
2021/03/29 04:23:46;;;;;;;9.20;3.50;;;9.80;71.60;;;;;;5072593;28;20127;-72
2021/03/29 04:26:12;;;;;;;7.68;4.00;;;9.80;71.60;;;;;;5073710;28;20016;-73
2021/03/29 04:28:38;;;;;;;11.20;4.50;;;9.80;71.60;;;;;;5073648;28;20028;-73
2021/03/29 04:31:03;;;;;;;7.97;3.88;;;9.80;71.60;;;;;;5073695;28;20059;-73
2021/03/29 04:33:29;;;;;;;8.07;3.38;;;9.80;71.60;;;;;;5073598;28;20136;-73
2021/03/29 04:35:55;;;;;;;8.48;3.90;;;9.80;71.70;;;;;;5072338;28;20028;-74
2021/03/29 04:38:21;;;;;;;8.35;3.63;;;9.80;71.70;;;;;;5073292;28;20051;-74
2021/03/29 04:40:46;;;;;;;8.95;3.40;;;9.80;71.80;;;;;;5072110;28;20028;-73
2021/03/29 04:43:12;;;;;;;7.75;3.33;;;9.80;71.80;;;;;;5072599;28;20412;-73
2021/03/29 04:45:38;;;;;;;7.63;3.50;;;9.80;71.80;;;;;;5072200;28;20023;-74
2021/03/29 04:48:04;;;;;;;9.18;3.38;;;9.80;71.80;;;;;;5073573;28;20443;-73
2021/03/29 04:50:30;;;;;;;7.20;3.15;;;9.80;71.90;;;;;;5073254;28;20038;-74
2021/03/29 04:52:56;;;;;;;11.90;3.28;;;9.80;71.90;;;;;;5071982;28;20028;-74
2021/03/29 04:55:21;;;;;;;7.43;3.67;;;9.80;71.90;;;;;;5072043;28;20039;-73
2021/03/29 04:57:48;;;;;;;9.57;3.47;;;9.80;71.90;;;;;;5072137;28;20066;-73
2021/03/29 05:00:14;;;;;;;7.80;3.67;;;9.80;71.90;;;;;;5073230;28;20021;-74
2021/03/29 05:02:40;;;;;;;7.43;2.75;;;9.80;71.90;;;;;;5073515;28;20024;-74
2021/03/29 05:05:08;;;;;;;7.72;2.90;;;9.80;71.90;;;;;;5073355;28;20020;-74
2021/03/29 05:07:33;;;;;;;6.65;2.97;;;9.80;72.00;;;;;;5073438;28;20107;-74
2021/03/29 05:10:00;;;;;;;4.85;2.70;;;9.80;72.10;;;;;;5072084;28;20068;-74
2021/03/29 05:12:26;;;;;;;6.55;2.50;;;9.80;72.10;;;;;;5073167;28;20074;-73
2021/03/29 05:14:52;;;;;;;9.68;3.03;;;9.80;72.10;;;;;;5073487;28;20099;-74
2021/03/29 05:17:19;;;;;;;5.88;2.90;;;9.80;72.10;;;;;;5071733;28;20016;-74
2021/03/29 05:19:45;;;;;;;5.53;3.30;;;9.80;72.10;;;;;;5071717;28;20171;-74
2021/03/29 05:22:11;;;;;;;7.15;3.40;;;9.70;72.20;;;;;;5071985;28;20107;-73
2021/03/29 05:24:37;;;;;;;8.65;3.50;;;9.80;72.30;;;;;;5071741;28;20017;-74
2021/03/29 05:27:04;;;;;;;12.10;5.10;;;9.70;72.30;;;;;;5073016;28;20108;-73
2021/03/29 05:29:40;;;;;;;7.03;3.20;;;9.70;72.40;;;;;;5071688;28;20019;-74
2021/03/29 05:32:27;;;;;;;8.15;3.20;;;9.70;72.50;;;;;;5071765;28;20063;-74
2021/03/29 05:34:59;;;;;;;6.65;2.53;;;9.80;72.50;;;;;;5072996;28;20021;-73
2021/03/29 05:37:25;;;;;;;5.45;2.80;;;9.70;72.40;;;;;;5071479;28;20511;-73
2021/03/29 05:39:53;;;;;;;8.88;2.70;;;9.80;72.40;;;;;;5071607;28;20021;-74
2021/03/29 05:42:20;;;;;;;6.93;2.40;;;9.80;72.40;;;;;;5072792;28;20047;-74
2021/03/29 05:44:46;;;;;;;5.65;2.65;;;9.80;72.30;;;;;;5071613;28;20021;-73
2021/03/29 05:47:14;;;;;;;7.32;2.70;;;9.80;72.30;;;;;;5071907;28;20069;-74
2021/03/29 05:49:39;;;;;;;6.88;2.75;;;9.80;72.30;;;;;;5071496;28;20430;-74
2021/03/29 05:52:05;;;;;;;9.38;2.80;;;9.90;72.20;;;;;;5072867;28;20028;-73
2021/03/29 05:54:31;;;;;;;5.95;2.45;;;9.90;72.20;;;;;;5072168;28;20070;-74
2021/03/29 05:56:57;;;;;;;8.00;2.42;;;9.90;72.10;;;;;;5075439;28;20085;-74
2021/03/29 05:59:41;;;;;;;5.20;2.47;;;10.00;72.10;;;;;;5076755;28;20434;-73
2021/03/29 06:02:09;;;;;;;6.80;2.47;;;10.00;72.00;;;;;;5075352;28;20103;-73
2021/03/29 06:04:45;;;;;;;6.10;2.50;;;10.00;72.00;;;;;;5076534;28;20427;-73
2021/03/29 06:07:12;;;;;;;8.93;2.83;;;10.10;72.00;;;;;;5076995;28;20345;-73
2021/03/29 06:09:38;;;;;;;9.02;2.63;;;10.10;72.00;;;;;;5075900;28;20086;-73
2021/03/29 06:12:04;;;;;;;5.40;2.50;;;10.10;71.90;;;;;;5076319;28;20032;-72
2021/03/29 06:14:30;;;;;;;6.85;2.72;;;10.10;71.80;;;;;;5076150;28;20020;-72
2021/03/29 06:17:13;;;;;;;5.53;2.53;;;10.10;71.80;;;;;;5074890;28;20532;-72
2021/03/29 06:20:09;;;;;;;7.28;2.88;;;10.10;71.80;;;;;;5076250;28;20036;-72
2021/03/29 06:22:36;;;;;;;7.75;2.75;;;10.20;71.80;;;;;;5057314;28;20028;-72
2021/03/29 06:25:16;;;;;;;5.32;2.53;;;10.20;71.80;;;;;;5057623;28;20032;-72
2021/03/29 06:27:48;;;;;;;5.97;2.58;;;10.20;71.70;;;;;;5057126;28;20036;-72
2021/03/29 06:30:17;;;;;;;8.45;2.65;;;10.20;71.70;;;;;;5073703;28;20468;-72
2021/03/29 06:32:57;;;;;;;5.82;2.40;;;10.20;71.70;;;;;;5073935;28;20044;-74
2021/03/29 06:35:26;;;;;;;10.38;3.00;;;10.20;71.70;;;;;;5056949;28;20029;-73
2021/03/29 06:37:51;;;;;;;9.80;2.90;;;10.20;71.70;;;;;;5073833;28;20044;-73
2021/03/29 06:40:17;;;;;;;8.13;2.55;;;10.20;71.80;;;;;;5056756;28;20032;-74
2021/03/29 06:42:43;;;;;;;8.13;2.85;;;10.20;71.80;;;;;;5057005;28;20075;-72
2021/03/29 06:45:11;;;;;;;7.07;3.08;;;10.20;71.90;;;;;;5074089;28;20200;-73
2021/03/29 06:47:37;;;;;;;13.50;2.88;;;10.20;71.80;;;;;;5056884;28;20032;-73
2021/03/29 06:50:03;;;;;;;10.57;3.17;;;10.20;71.90;;;;;;5056911;28;20020;-73
2021/03/29 06:52:31;;;;;;;8.35;2.97;;;10.30;72.00;;;;;;5073677;28;20060;-73
2021/03/29 06:55:23;;;;;;;7.35;2.67;;;10.30;72.00;;;;;;5073633;28;20060;-73
2021/03/29 06:58:24;;;;;;;10.65;3.08;;;10.20;71.90;;;;;;5073791;28;20071;-74
2021/03/29 07:00:55;;;;;;;8.55;3.30;;;10.30;72.00;;;;;;5070383;28;20037;-73
2021/03/29 07:03:21;;;;;;;8.63;2.63;;;10.30;72.00;;;;;;5074143;28;20024;-75
2021/03/29 07:05:49;;;;;;;5.88;3.83;;;10.30;71.90;;;;;;5073619;28;20012;-75
2021/03/29 07:08:15;;;;;;;8.27;3.03;;;10.30;72.00;;;;;;5073586;28;20021;-75
2021/03/29 07:10:41;;;;;;;9.02;2.90;;;10.30;72.00;;;;;;5071186;28;20032;-75
2021/03/29 07:13:08;;;;;;;7.65;3.08;;;10.30;72.00;;;;;;5075385;28;20021;-74
2021/03/29 07:15:36;;;;;;;10.05;3.05;;;10.40;72.10;;;;;;5073820;28;20329;-75
2021/03/29 07:18:02;;;;;;;6.43;3.22;;;10.40;72.10;;;;;;5075155;28;20499;-74
2021/03/29 07:20:31;;;;;;;14.13;3.60;;;10.40;72.10;;;;;;5073775;28;20028;-74
2021/03/29 07:22:57;;;;;;;6.85;3.30;;;10.50;72.00;;;;;;5075009;28;20032;-74
2021/03/29 07:25:31;;;;;;;12.20;3.22;;;10.50;71.90;;;;;;5074964;28;20023;-74
2021/03/29 07:27:59;;;;;;;8.77;2.95;;;10.60;71.90;;;;;;5075587;28;20452;-74
2021/03/29 07:30:44;;;;;;;9.13;2.90;;;10.70;71.90;;;;;;5075005;28;20027;-74
2021/03/29 07:33:11;;;;;;;7.82;3.00;;;10.70;71.80;;;;;;5073580;28;20020;-74
2021/03/29 07:36:03;;;;;;;8.23;2.88;;;10.70;71.70;;;;;;5074999;28;20021;-75
2021/03/29 07:38:55;;;;;;;11.27;3.10;;;10.80;71.60;;;;;;5074379;28;20041;-75
2021/03/29 07:41:21;;;;;;;6.32;3.20;;;10.80;71.50;;;;;;5075120;28;20078;-74
2021/03/29 07:44:43;;;;;;;11.55;3.72;;;10.90;71.50;;;;;;5075323;28;20372;-76
2021/03/29 07:47:08;;;;;;;6.47;3.40;;;10.90;71.40;;;;;;5074928;28;20434;-74
2021/03/29 07:49:47;;;;;;;6.97;2.70;;;10.90;71.30;;;;;;5073428;28;20058;-74
2021/03/29 07:52:25;;;;;;;8.82;3.30;;;11.00;71.30;;;;;;5074615;28;20090;-74
2021/03/29 07:54:55;;;;;;;8.23;2.92;;;11.00;71.30;;;;;;5074932;28;20484;-74
2021/03/29 07:57:49;;;;;;;10.70;3.25;;;11.00;71.20;;;;;;5073207;28;20036;-74
2021/03/29 08:00:24;;;;;;;7.53;3.00;;;11.10;71.20;;;;;;5073045;28;20488;-74
2021/03/29 08:02:50;;;;;;;7.03;3.13;;;11.20;71.30;;;;;;5072912;28;20033;-75
2021/03/29 08:05:34;;;;;;;8.95;3.38;;;11.20;71.20;;;;;;5074803;28;20021;-74
2021/03/29 08:08:02;;;;;;;8.65;3.03;;;11.30;71.10;;;;;;5073969;28;20029;-75
2021/03/29 08:10:57;;;;;;;10.50;3.88;;;11.40;71.10;;;;;;5072799;28;20511;-75
2021/03/29 08:13:49;;;;;;;7.43;3.15;;;11.40;71.10;;;;;;5074106;28;20546;-74
2021/03/29 08:16:15;;;;;;;9.43;3.55;;;11.40;71.00;;;;;;5074574;28;20025;-74
2021/03/29 08:19:06;;;;;;;7.05;3.17;;;11.50;70.90;;;;;;5074298;28;20115;-75
2021/03/29 08:22:09;;;;;;;6.25;3.15;;;11.50;70.90;;;;;;5072462;28;20052;-75
2021/03/29 08:24:46;;;;;;;9.13;3.05;;;11.60;70.90;;;;;;5072655;28;20511;-74
2021/03/29 08:30:40;;;;;;;6.85;3.05;;;11.60;70.70;;;;;;5074296;28;20054;-74
2021/03/29 08:33:10;;;;;;;9.65;3.00;;;11.70;70.70;;;;;;5072352;28;20029;-74
2021/03/29 08:35:37;;;;;;;12.55;3.40;;;11.70;70.70;;;;;;5073701;28;20028;-74
2021/03/29 08:38:10;;;;;;;8.98;3.60;;;11.80;70.60;;;;;;5073535;28;20037;-74
2021/03/29 08:40:37;;;;;;;6.07;2.80;;;11.80;70.60;;;;;;5073455;28;20037;-74
2021/03/29 08:43:08;;;;;;;7.88;3.05;;;11.90;70.60;;;;;;5072245;28;20111;-74
2021/03/29 08:45:35;;;;;;;7.35;3.25;;;11.90;70.50;;;;;;5073405;28;20021;-74
2021/03/29 08:48:05;;;;;;;7.57;3.22;;;11.90;70.40;;;;;;5072165;28;20025;-74
2021/03/29 08:50:35;;;;;;;9.75;3.72;;;12.00;70.40;;;;;;5073571;28;20028;-74
2021/03/29 08:53:02;;;;;;;7.72;3.03;;;12.10;70.10;;;;;;5072151;28;20173;-75
2021/03/29 08:55:30;;;;;;;9.25;3.28;;;12.10;70.00;;;;;;5072039;28;20120;-74
2021/03/29 08:57:57;;;;;;;8.93;3.50;;;12.20;69.90;;;;;;5072093;28;20024;-74
2021/03/29 09:00:27;;;;;;;10.48;3.83;;;12.20;69.70;;;;;;5072037;28;20112;-74
2021/03/29 09:02:53;;;;;;;9.93;3.53;;;12.30;69.60;;;;;;5073551;28;20032;-75
2021/03/29 09:05:21;;;;;;;8.77;3.47;;;12.30;69.50;;;;;;5072010;28;20028;-75
2021/03/29 09:07:53;;;;;;;7.50;3.72;;;12.40;69.20;;;;;;5071945;28;20036;-74
2021/03/29 09:10:28;;;;;;;8.55;3.70;;;12.50;68.80;;;;;;5072152;28;20033;-75
2021/03/29 09:12:58;;;;;;;9.23;4.28;;;12.50;68.50;;;;;;5071865;28;20023;-75
2021/03/29 09:15:26;;;;;;;5.43;3.08;;;12.60;68.60;;;;;;5073280;28;20032;-75
2021/03/29 09:17:59;;;;;;;6.28;3.20;;;12.70;68.40;;;;;;5071669;28;20033;-73
2021/03/29 09:20:38;;;;;;;7.97;2.83;;;12.70;68.30;;;;;;5071553;28;20030;-74
2021/03/29 09:23:04;;;;;;;9.25;2.78;;;12.90;68.20;;;;;;5071824;28;20104;-75
2021/03/29 09:25:39;;;;;;;7.10;2.85;;;12.90;67.90;;;;;;5072918;28;20038;-76
2021/03/29 09:28:15;;;;;;;7.10;2.55;;;13.00;67.50;;;;;;5071705;28;20024;-74
2021/03/29 09:30:41;;;;;;;5.90;2.70;;;13.10;67.40;;;;;;5076740;28;20033;-74
2021/03/29 09:33:08;;;;;;;9.35;2.80;;;13.20;66.80;;;;;;5079750;28;20103;-75
2021/03/29 09:35:33;;;;;;;7.70;2.70;;;13.20;66.40;;;;;;5078443;28;20426;-75
2021/03/29 09:37:59;;;;;;;7.45;2.60;;;13.30;66.10;;;;;;5078392;28;20189;-75
2021/03/29 09:40:33;;;;;;;6.00;2.63;;;13.40;65.70;;;;;;5078179;28;20034;-75
2021/03/29 09:43:00;;;;;;;6.13;2.80;;;13.40;65.30;;;;;;5079858;28;20491;-75
2021/03/29 09:45:27;;;;;;;6.90;2.63;;;13.50;64.80;;;;;;5078483;28;20021;-75
2021/03/29 09:48:08;;;;;;;9.55;2.92;;;13.60;64.10;;;;;;5078380;28;20017;-74
2021/03/29 09:50:43;;;;;;;6.97;2.50;;;13.60;63.50;;;;;;5079859;28;20024;-75
2021/03/29 09:53:10;;;;;;;5.70;2.55;;;13.70;63.30;;;;;;5078949;28;20033;-75
2021/03/29 09:55:57;;;;;;;7.25;2.67;;;13.80;63.20;;;;;;5080521;28;20029;-75
2021/03/29 09:58:25;;;;;;;7.97;2.95;;;13.80;62.60;;;;;;5078502;28;20504;-75
2021/03/29 10:00:53;;;;;;;5.43;3.17;;;13.80;61.70;;;;;;5078288;28;20028;-74
2021/03/29 10:03:21;;;;;;;6.38;2.55;;;13.80;61.80;;;;;;5078262;28;20032;-75
2021/03/29 10:05:48;;;;;;;6.15;2.80;;;13.90;61.60;;;;;;5078205;28;20411;-75
2021/03/29 10:08:33;;;;;;;5.53;2.35;;;14.00;61.80;;;;;;5077925;28;20048;-75
2021/03/29 10:11:01;;;;;;;6.05;2.45;;;14.00;61.60;;;;;;5078014;28;20042;-75
2021/03/29 10:13:41;;;;;;;4.35;2.13;;;14.10;61.60;;;;;;5078072;28;20489;-76
2021/03/29 10:16:23;;;;;;;6.07;3.13;;;14.10;61.10;;;;;;5078327;28;20029;-75
2021/03/29 10:19:06;;;;;;;6.13;2.70;;;14.10;61.00;;;;;;5077947;28;20024;-75
2021/03/29 10:22:14;;;;;;;6.82;2.53;;;14.20;60.70;;;;;;5077955;28;20146;-77
2021/03/29 10:25:02;;;;;;;4.53;2.30;;;14.30;60.40;;;;;;5078690;28;20077;-76
2021/03/29 10:27:46;;;;;;;7.28;2.55;;;14.40;60.40;;;;;;5077857;28;20029;-75
2021/03/29 10:30:33;;;;;;;5.93;2.65;;;14.40;60.00;;;;;;5079722;28;20103;-76
2021/03/29 10:33:01;;;;;;;8.35;2.90;;;14.50;59.80;;;;;;5078038;28;20457;-76
2021/03/29 10:35:29;;;;;;;5.38;2.60;;;14.50;59.00;;;;;;5079588;28;20037;-78
2021/03/29 10:37:57;;;;;;;6.82;2.92;;;14.60;59.00;;;;;;5078042;28;20048;-75
2021/03/29 10:40:23;;;;;;;7.57;3.20;;;14.60;58.80;;;;;;5078875;28;20025;-75
2021/03/29 10:42:50;;;;;;;8.48;2.85;;;14.60;58.00;;;;;;5074850;28;20051;-75
2021/03/29 10:45:17;;;;;;;6.00;2.97;;;14.70;57.40;;;;;;5074864;28;20035;-75
2021/03/29 10:47:44;;;;;;;6.55;2.90;;;14.70;57.30;;;;;;5074576;28;20101;-76
2021/03/29 10:50:16;;;;;;;6.25;2.90;;;14.70;57.10;;;;;;5074667;28;20026;-75
2021/03/29 10:52:41;;;;;;;5.85;3.22;;;14.80;57.20;;;;;;5075642;28;20039;-75
2021/03/29 10:55:08;;;;;;;9.27;3.28;;;14.80;56.10;;;;;;5075799;28;20024;-78
2021/03/29 10:57:34;;;;;;;5.75;2.60;;;14.90;56.30;;;;;;5076777;28;20040;-75
2021/03/29 11:00:00;;;;;;;7.68;2.80;;;15.00;56.60;;;;;;5075483;28;20032;-75
2021/03/29 11:02:26;;;;;;;4.50;2.53;;;15.00;56.60;;;;;;5074037;28;20112;-76
2021/03/29 11:04:52;;;;;;;8.27;2.97;;;15.00;56.70;;;;;;5074284;28;20024;-75
2021/03/29 11:07:17;;;;;;;8.27;2.90;;;15.10;56.50;;;;;;5074236;28;20017;-74
2021/03/29 11:09:43;;;;;;;7.03;2.75;;;15.20;56.30;;;;;;5074102;28;20050;-77
2021/03/29 11:12:10;;;;;;;7.78;2.58;;;15.30;56.40;;;;;;5075590;28;20028;-75
2021/03/29 11:14:36;;;;;;;6.82;3.00;;;15.30;56.30;;;;;;5074150;28;20066;-75
2021/03/29 11:17:02;;;;;;;3.80;2.53;;;15.40;56.10;;;;;;5074295;28;20483;-75
2021/03/29 11:19:28;;;;;;;6.05;2.85;;;15.50;55.10;;;;;;5073792;28;20048;-75
2021/03/29 11:21:53;;;;;;;8.55;2.85;;;15.50;54.90;;;;;;5075113;28;20145;-75
2021/03/29 11:24:22;;;;;;;5.68;3.00;;;15.50;54.80;;;;;;5075200;28;20032;-75
2021/03/29 11:26:48;;;;;;;8.35;2.55;;;15.60;54.80;;;;;;5074982;28;20039;-75
2021/03/29 11:29:15;;;;;;;7.45;3.17;;;15.70;54.90;;;;;;5073833;28;20020;-75
2021/03/29 11:31:42;;;;;;;8.07;3.40;;;15.70;54.20;;;;;;5075082;28;20024;-75
2021/03/29 11:34:09;;;;;;;6.40;3.03;;;15.80;53.80;;;;;;5075251;28;20025;-76
2021/03/29 11:36:35;;;;;;;6.85;2.90;;;15.80;53.80;;;;;;5075122;28;20438;-75
2021/03/29 11:39:04;;;;;;;4.25;2.50;;;15.90;52.80;;;;;;5073579;28;20040;-75
2021/03/29 11:41:31;;;;;;;5.00;2.58;;;15.90;53.00;;;;;;5075109;28;20134;-75
2021/03/29 11:43:57;;;;;;;9.73;2.75;;;16.00;53.20;;;;;;5074927;28;20391;-75
2021/03/29 11:46:22;;;;;;;10.35;3.05;;;16.10;53.10;;;;;;5073399;28;20120;-75
2021/03/29 11:48:48;;;;;;;8.60;2.78;;;16.20;52.20;;;;;;5075127;28;20521;-77
2021/03/29 11:51:14;;;;;;;6.03;2.67;;;16.20;52.40;;;;;;5074937;28;20119;-74
2021/03/29 11:53:39;;;;;;;5.38;2.60;;;16.30;52.10;;;;;;5073110;28;20082;-74
2021/03/29 11:56:06;;;;;;;6.32;2.53;;;16.40;51.30;;;;;;5074694;28;20085;-75
2021/03/29 11:58:31;;;;;;;5.85;2.28;;;16.40;51.10;;;;;;5073221;28;20029;-75
2021/03/29 12:01:01;;;;;;;6.50;2.45;;;16.50;50.80;;;;;;5074608;28;20033;-75
2021/03/29 12:06:12;;;;;;;6.32;2.42;;;16.60;50.00;;;;;;5074787;28;20043;-75
2021/03/29 12:13:57;;;;;;;7.82;2.40;;;16.80;47.90;;;;;;5074454;28;20044;-76
2021/03/29 12:19:44;;;;;;;7.47;2.47;;;16.90;47.20;;;;;;5074994;28;20090;-75
2021/03/29 12:22:23;;;;;;;8.27;2.92;;;17.00;47.30;;;;;;5072722;28;20025;-75
2021/03/29 12:24:53;;;;;;;5.88;2.55;;;17.00;47.00;;;;;;5074100;28;20031;-74
2021/03/29 12:27:20;;;;;;;5.53;2.38;;;17.00;47.40;;;;;;5072714;28;20052;-74
2021/03/29 12:29:48;;;;;;;11.07;3.20;;;17.10;47.70;;;;;;5074030;28;20597;-74
2021/03/29 12:32:17;;;;;;;5.10;2.50;;;17.20;47.70;;;;;;5073953;28;20369;-75
2021/03/29 12:34:43;;;;;;;6.47;2.50;;;17.20;48.00;;;;;;5073796;28;20058;-75
2021/03/29 12:37:11;;;;;;;6.88;2.80;;;17.30;47.90;;;;;;5074090;28;20442;-75
2021/03/29 12:39:42;;;;;;;4.75;2.80;;;17.40;47.30;;;;;;5073519;28;20040;-75
2021/03/29 12:42:11;;;;;;;6.75;2.83;;;17.50;46.90;;;;;;5073645;28;20073;-75
2021/03/29 12:44:37;;;;;;;7.72;2.90;;;17.60;46.60;;;;;;5072341;28;20429;-74
2021/03/29 12:47:07;;;;;;;6.18;2.20;;;17.60;46.70;;;;;;5074223;28;20150;-74
2021/03/29 12:49:33;;;;;;;5.07;2.53;;;17.70;46.40;;;;;;5073777;28;20065;-74
2021/03/29 12:52:01;;;;;;;5.88;2.95;;;17.80;46.30;;;;;;5072314;28;20108;-75
2021/03/29 12:54:29;;;;;;;5.72;2.40;;;17.80;45.70;;;;;;5073799;28;20028;-74
2021/03/29 12:56:55;;;;;;;5.75;2.20;;;17.90;45.70;;;;;;5073375;28;20024;-73
2021/03/29 12:59:29;;;;;;;3.80;2.10;;;17.90;45.60;;;;;;5072423;28;20036;-75
2021/03/29 13:01:56;;;;;;;7.95;2.20;;;17.90;45.20;;;;;;5072268;28;20088;-76
2021/03/29 13:04:36;;;;;;;5.20;2.10;;;18.00;45.00;;;;;;5071393;28;20051;-74
2021/03/29 13:07:31;;;;;;;4.15;2.03;;;18.00;45.10;;;;;;5072260;28;20090;-74
2021/03/29 13:10:07;;;;;;;4.43;2.33;;;18.10;45.20;;;;;;5073729;28;20055;-74
2021/03/29 13:12:35;;;;;;;4.13;2.40;;;18.20;45.00;;;;;;5072340;28;20120;-75
2021/03/29 13:15:06;;;;;;;3.78;2.10;;;18.20;45.10;;;;;;5072198;28;20021;-74
2021/03/29 13:17:37;;;;;;;5.75;2.45;;;18.30;45.10;;;;;;5072092;28;20369;-74